createdAt,value
2023-04-10T00:00:52.728Z,43.89
2023-04-10T00:06:14.719Z,44.06
2023-04-10T00:11:36.722Z,44.36
2023-04-10T00:16:58.831Z,43.90
2023-04-10T00:22:20.715Z,44.45
2023-04-10T00:27:42.711Z,44.24
2023-04-10T00:33:04.732Z,44.70
2023-04-10T00:38:26.707Z,44.82
2023-04-10T00:43:48.703Z,45.12
2023-04-10T00:49:03.773Z,45.27
2023-04-10T00:54:25.714Z,45.23
2023-04-10T00:59:47.692Z,45.40
2023-04-10T01:05:09.699Z,45.86
2023-04-10T01:10:44.702Z,45.68
2023-04-10T01:16:19.733Z,45.68
2023-04-10T01:21:42.698Z,45.81
2023-04-10T01:27:22.707Z,45.41
2023-04-10T01:32:46.703Z,45.14
2023-04-10T01:38:11.705Z,44.83
2023-04-10T01:43:35.684Z,44.99
2023-04-10T01:48:59.787Z,45.12
2023-04-10T01:54:22.710Z,45.54
2023-04-10T01:59:44.715Z,45.76
2023-04-10T02:05:06.763Z,46.08
2023-04-10T02:10:41.691Z,46.35
2023-04-10T02:16:13.685Z,46.23
2023-04-10T02:21:35.677Z,46.21
2023-04-10T02:26:58.726Z,46.37
2023-04-10T02:32:20.711Z,46.50
2023-04-10T02:37:42.655Z,46.34
2023-04-10T02:43:04.680Z,46.34
2023-04-10T02:48:26.683Z,46.60
2023-04-10T02:53:50.668Z,46.60
2023-04-10T02:59:17.672Z,46.55
2023-04-10T03:04:39.689Z,46.54
2023-04-10T03:10:01.650Z,46.75
2023-04-10T03:15:30.655Z,47.11
2023-04-10T03:20:52.651Z,47.31
2023-04-10T03:26:14.664Z,47.70
2023-04-10T03:31:36.689Z,47.59
2023-04-10T03:36:58.673Z,47.36
2023-04-10T03:42:20.644Z,47.06
2023-04-10T03:47:47.700Z,46.99
2023-04-10T03:53:09.662Z,47.58
2023-04-10T03:58:32.665Z,47.43
2023-04-10T04:03:54.968Z,47.77
2023-04-10T04:09:36.656Z,47.62
2023-04-10T04:15:09.631Z,47.80
2023-04-10T04:20:39.655Z,47.68
2023-04-10T04:26:31.634Z,47.60
2023-04-10T04:32:20.722Z,47.85
2023-04-10T04:37:47.652Z,47.68
2023-04-10T04:43:29.635Z,47.89
2023-04-10T04:49:13.663Z,47.95
2023-04-10T04:54:58.666Z,48.23
2023-04-10T05:00:35.616Z,48.05
2023-04-10T05:06:20.639Z,48.18
2023-04-10T05:11:48.615Z,48.23
2023-04-10T05:17:33.666Z,48.68
2023-04-10T05:23:13.624Z,48.83
2023-04-10T05:28:45.622Z,48.97
2023-04-10T05:34:23.624Z,48.70
2023-04-10T05:40:01.603Z,49.06
2023-04-10T05:45:41.644Z,49.19
2023-04-10T05:51:13.609Z,49.93
2023-04-10T05:56:54.622Z,49.68
2023-04-10T06:02:19.771Z,49.93
2023-04-10T06:07:41.614Z,50.03
2023-04-10T06:13:03.625Z,50.27
2023-04-10T06:18:25.588Z,50.19
2023-04-10T06:23:47.595Z,50.15
2023-04-10T06:29:09.608Z,50.28
2023-04-10T06:34:31.625Z,50.22
2023-04-10T06:39:56.617Z,49.92
2023-04-10T06:45:18.596Z,50.11
2023-04-10T06:50:40.603Z,49.89
2023-04-10T06:56:03.590Z,49.89
2023-04-10T07:01:26.492Z,49.85
2023-04-10T07:06:48.601Z,49.59
2023-04-10T07:12:10.594Z,50.14
2023-04-10T07:17:32.616Z,50.14
2023-04-10T07:22:54.573Z,49.97
2023-04-10T07:28:16.606Z,49.88
2023-04-10T07:33:38.601Z,49.67
2023-04-10T07:39:00.626Z,49.80
2023-04-10T07:44:22.632Z,49.64
2023-04-10T07:49:44.584Z,49.56
2023-04-10T07:55:11.598Z,49.25
2023-04-10T08:00:33.629Z,49.16
2023-04-10T08:05:55.623Z,48.92
2023-04-10T08:11:20.630Z,48.98
2023-04-10T08:16:43.614Z,48.42
2023-04-10T08:22:05.599Z,48.58
2023-04-10T08:27:27.585Z,48.00
2023-04-10T08:32:49.610Z,47.98
2023-04-10T08:38:14.032Z,47.77
2023-04-10T08:43:36.563Z,47.53
2023-04-10T08:49:12.588Z,47.62
2023-04-10T08:54:40.562Z,47.22
2023-04-10T09:00:09.609Z,47.28
2023-04-10T09:05:42.569Z,47.17
2023-04-10T09:11:04.586Z,46.90
2023-04-10T09:16:42.601Z,46.67
2023-04-10T09:22:04.590Z,46.26
2023-04-10T09:27:42.573Z,45.76
2023-04-10T09:33:04.641Z,45.25
2023-04-10T09:38:32.599Z,44.89
2023-04-10T09:43:54.839Z,45.13
2023-04-10T09:49:16.570Z,44.94
2023-04-10T09:54:44.601Z,44.89
2023-04-10T10:00:08.584Z,44.51
2023-04-10T10:05:34.544Z,44.14
2023-04-10T10:11:01.589Z,44.09
2023-04-10T10:16:36.599Z,43.63
2023-04-10T10:21:58.580Z,43.43
2023-04-10T10:27:23.615Z,42.92
2023-04-10T10:32:46.629Z,42.66
2023-04-10T10:38:08.620Z,42.42
2023-04-10T10:44:08.586Z,42.20
2023-04-10T10:49:30.590Z,41.89
2023-04-10T11:00:15.652Z,41.68
2023-04-10T11:05:59.574Z,41.24
2023-04-10T11:11:31.571Z,40.79
2023-04-10T11:17:01.675Z,40.80
2023-04-10T11:22:23.558Z,40.61
2023-04-10T11:27:55.579Z,40.35
2023-04-10T11:33:25.587Z,40.12
2023-04-10T11:38:47.552Z,39.67
2023-04-10T11:44:14.528Z,39.40
2023-04-10T11:49:39.507Z,39.15
2023-04-10T11:55:01.531Z,38.86
2023-04-10T12:00:23.543Z,39.15
2023-04-10T12:05:54.558Z,38.74
2023-04-10T12:11:16.552Z,38.30
2023-04-10T12:16:39.514Z,37.99
2023-04-10T12:22:02.516Z,37.30
2023-04-10T12:27:33.523Z,37.81
2023-04-10T12:33:03.568Z,37.73
2023-04-10T12:38:51.531Z,37.14
2023-04-10T12:44:25.530Z,36.86
2023-04-10T12:49:47.503Z,36.90
2023-04-10T12:55:22.503Z,36.61
2023-04-10T13:00:44.503Z,36.02
2023-04-10T13:06:06.514Z,35.60
2023-04-10T13:11:29.511Z,35.91
2023-04-10T13:16:58.529Z,35.81
2023-04-10T13:22:20.492Z,35.37
2023-04-10T13:27:42.494Z,35.24
2023-04-10T13:33:04.543Z,35.47
2023-04-10T13:38:26.496Z,35.35
2023-04-10T13:43:48.511Z,35.27
2023-04-10T13:49:10.536Z,34.97
2023-04-10T13:54:33.495Z,34.38
2023-04-10T13:59:55.509Z,34.28
2023-04-10T14:05:27.513Z,33.95
2023-04-10T14:10:49.534Z,33.66
2023-04-10T14:16:18.524Z,33.41
2023-04-10T14:21:40.531Z,33.19
2023-04-10T14:27:04.495Z,32.37
2023-04-10T14:32:26.593Z,32.14
2023-04-10T14:37:48.524Z,31.93
2023-04-10T14:43:10.491Z,31.78
2023-04-10T14:48:32.555Z,31.41
2023-04-10T14:53:54.736Z,31.24
2023-04-10T14:59:16.478Z,30.80
2023-04-10T15:04:38.578Z,30.69
2023-04-10T15:10:00.510Z,30.52
2023-04-10T15:15:37.500Z,30.58
2023-04-10T15:20:59.504Z,29.55
2023-04-10T15:26:28.526Z,29.58
2023-04-10T15:31:50.483Z,29.14
2023-04-10T15:37:12.493Z,28.77
2023-04-10T15:42:34.488Z,28.77
2023-04-10T15:47:59.539Z,28.55
2023-04-10T15:53:21.514Z,28.04
2023-04-10T15:58:43.469Z,28.02
2023-04-10T16:04:05.698Z,28.01
2023-04-10T16:09:27.472Z,27.83
2023-04-10T16:14:49.492Z,27.52
2023-04-10T16:20:11.504Z,27.55
2023-04-10T16:25:34.512Z,27.26
2023-04-10T16:30:56.471Z,27.00
2023-04-10T16:36:18.485Z,27.13
2023-04-10T16:41:40.500Z,27.00
2023-04-10T16:47:02.512Z,27.13
2023-04-10T16:52:26.479Z,27.51
2023-04-10T16:57:49.483Z,27.64
2023-04-10T17:03:14.547Z,27.68
2023-04-10T17:08:36.472Z,27.61
2023-04-10T17:13:59.494Z,27.54
2023-04-10T17:19:21.478Z,27.72
2023-04-10T17:24:43.490Z,27.84
2023-04-10T17:30:05.491Z,27.72
2023-04-10T17:35:27.469Z,28.04
2023-04-10T17:40:49.466Z,28.10
2023-04-10T17:46:11.476Z,28.17
2023-04-10T17:51:34.511Z,28.34
2023-04-10T17:56:56.514Z,28.39
2023-04-10T18:02:18.510Z,28.65
2023-04-10T18:07:40.467Z,28.67
2023-04-10T18:13:05.462Z,28.73
2023-04-10T18:18:34.472Z,28.96
2023-04-10T18:23:56.488Z,29.17
2023-04-10T18:29:18.472Z,29.33
2023-04-10T18:34:40.472Z,29.08
2023-04-10T18:40:09.860Z,29.27
2023-04-10T18:45:39.458Z,29.23
2023-04-10T18:51:07.473Z,29.35
2023-04-10T18:56:29.472Z,29.25
2023-04-10T19:01:51.543Z,29.34
2023-04-10T19:07:13.445Z,29.36
2023-04-10T19:12:35.442Z,29.48
2023-04-10T19:18:07.494Z,29.80
2023-04-10T19:23:29.452Z,29.55
2023-04-10T19:28:51.479Z,29.76
2023-04-10T19:34:17.456Z,29.87
2023-04-10T19:39:39.457Z,30.04
2023-04-10T19:45:01.467Z,30.24
2023-04-10T19:50:23.450Z,30.52
2023-04-10T19:55:46.468Z,30.54
2023-04-10T20:01:09.516Z,31.07
2023-04-10T20:06:32.455Z,31.02
2023-04-10T20:11:54.446Z,31.36
2023-04-10T20:17:16.446Z,31.65
2023-04-10T20:22:38.448Z,31.86
2023-04-10T20:28:00.436Z,31.44
2023-04-10T20:33:22.446Z,31.74
2023-04-10T20:38:44.440Z,31.99
2023-04-10T20:44:06.418Z,32.08
2023-04-10T20:49:29.430Z,32.15
2023-04-10T20:54:51.432Z,32.29
2023-04-10T21:00:13.454Z,32.42
2023-04-10T21:05:35.440Z,32.67
2023-04-10T21:10:57.421Z,32.66
2023-04-10T21:16:19.448Z,32.88
2023-04-10T21:21:41.432Z,33.02
2023-04-10T21:27:03.435Z,33.11
2023-04-10T21:32:25.439Z,33.26
2023-04-10T21:37:47.455Z,33.29
2023-04-10T21:43:10.423Z,33.39
2023-04-10T21:48:32.408Z,33.53
2023-04-10T21:53:54.439Z,33.71
2023-04-10T21:59:16.413Z,33.68
2023-04-10T22:04:47.832Z,33.70
2023-04-10T22:10:15.427Z,33.91
2023-04-10T22:15:37.406Z,33.76
2023-04-10T22:20:59.425Z,34.03
2023-04-10T22:26:21.425Z,33.94
2023-04-10T22:31:43.455Z,34.25
2023-04-10T22:37:05.418Z,34.21
2023-04-10T22:42:28.364Z,34.31
2023-04-10T22:47:51.400Z,34.57
2023-04-10T22:53:13.425Z,34.74
2023-04-10T22:58:35.403Z,34.84
2023-04-10T23:04:00.469Z,34.85
2023-04-10T23:09:22.417Z,34.99
2023-04-10T23:14:44.397Z,35.13
2023-04-10T23:20:06.388Z,34.89
2023-04-10T23:25:28.398Z,34.99
2023-04-10T23:30:50.448Z,35.30
2023-04-10T23:36:12.394Z,35.13
2023-04-10T23:41:34.423Z,35.39
2023-04-10T23:46:56.444Z,35.24
2023-04-10T23:52:18.388Z,35.39
2023-04-10T23:57:40.404Z,35.31
